sensor_id;sensor_type;location;lat;lon;timestamp;P1;durP1;ratioP1;P2;durP2;ratioP2
21000;SDS011;10658;50.920;12.238;2022-08-30T00:04:14;5.03;;;1.90;;
21000;SDS011;10658;50.920;12.238;2022-08-30T00:08:15;2.83;;;2.42;;
21000;SDS011;10658;50.920;12.238;2022-08-30T00:12:16;3.78;;;2.58;;
21000;SDS011;10658;50.920;12.238;2022-08-30T00:16:21;2.65;;;2.05;;
21000;SDS011;10658;50.920;12.238;2022-08-30T00:20:25;4.30;;;2.53;;
21000;SDS011;10658;50.920;12.238;2022-08-30T00:24:29;4.03;;;2.42;;
21000;SDS011;10658;50.920;12.238;2022-08-30T00:28:30;3.22;;;2.47;;
21000;SDS011;10658;50.920;12.238;2022-08-30T00:32:33;3.28;;;2.38;;
21000;SDS011;10658;50.920;12.238;2022-08-30T00:36:35;3.25;;;2.10;;
21000;SDS011;10658;50.920;12.238;2022-08-30T00:40:36;5.45;;;2.95;;
21000;SDS011;10658;50.920;12.238;2022-08-30T00:44:43;5.60;;;2.58;;
21000;SDS011;10658;50.920;12.238;2022-08-30T00:48:45;4.35;;;2.70;;
21000;SDS011;10658;50.920;12.238;2022-08-30T00:52:50;4.07;;;2.67;;
21000;SDS011;10658;50.920;12.238;2022-08-30T00:56:55;3.13;;;2.40;;
21000;SDS011;10658;50.920;12.238;2022-08-30T01:00:57;3.85;;;2.33;;
21000;SDS011;10658;50.920;12.238;2022-08-30T01:05:02;3.97;;;2.47;;
21000;SDS011;10658;50.920;12.238;2022-08-30T01:09:05;3.60;;;2.30;;
21000;SDS011;10658;50.920;12.238;2022-08-30T01:13:06;3.67;;;2.60;;
21000;SDS011;10658;50.920;12.238;2022-08-30T01:17:08;3.85;;;2.83;;
21000;SDS011;10658;50.920;12.238;2022-08-30T01:25:33;4.45;;;3.03;;
21000;SDS011;10658;50.920;12.238;2022-08-30T01:29:37;3.42;;;2.03;;
21000;SDS011;10658;50.920;12.238;2022-08-30T01:33:37;4.03;;;2.40;;
21000;SDS011;10658;50.920;12.238;2022-08-30T01:37:40;3.97;;;2.72;;
21000;SDS011;10658;50.920;12.238;2022-08-30T01:41:43;4.82;;;2.70;;
21000;SDS011;10658;50.920;12.238;2022-08-30T01:45:45;6.07;;;3.20;;
21000;SDS011;10658;50.920;12.238;2022-08-30T01:49:46;4.55;;;2.25;;
21000;SDS011;10658;50.920;12.238;2022-08-30T01:53:47;7.63;;;3.17;;
21000;SDS011;10658;50.920;12.238;2022-08-30T01:57:49;5.28;;;3.20;;
21000;SDS011;10658;50.920;12.238;2022-08-30T02:01:50;4.80;;;2.75;;
21000;SDS011;10658;50.920;12.238;2022-08-30T02:10:26;8.05;;;2.67;;
21000;SDS011;10658;50.920;12.238;2022-08-30T02:14:29;4.45;;;3.10;;
21000;SDS011;10658;50.920;12.238;2022-08-30T02:18:31;5.22;;;2.95;;
21000;SDS011;10658;50.920;12.238;2022-08-30T02:22:33;5.55;;;3.17;;
21000;SDS011;10658;50.920;12.238;2022-08-30T02:26:36;4.85;;;2.60;;
21000;SDS011;10658;50.920;12.238;2022-08-30T02:30:37;3.92;;;2.65;;
21000;SDS011;10658;50.920;12.238;2022-08-30T02:34:39;4.57;;;2.60;;
21000;SDS011;10658;50.920;12.238;2022-08-30T02:38:39;3.95;;;2.60;;
21000;SDS011;10658;50.920;12.238;2022-08-30T02:42:41;4.35;;;3.20;;
21000;SDS011;10658;50.920;12.238;2022-08-30T02:46:42;3.10;;;2.50;;
21000;SDS011;10658;50.920;12.238;2022-08-30T02:50:44;4.65;;;3.15;;
21000;SDS011;10658;50.920;12.238;2022-08-30T02:54:48;5.05;;;2.70;;
21000;SDS011;10658;50.920;12.238;2022-08-30T02:58:49;4.28;;;3.08;;
21000;SDS011;10658;50.920;12.238;2022-08-30T03:02:50;7.93;;;3.33;;
21000;SDS011;10658;50.920;12.238;2022-08-30T03:06:51;3.58;;;2.80;;
21000;SDS011;10658;50.920;12.238;2022-08-30T03:10:52;4.05;;;2.80;;
21000;SDS011;10658;50.920;12.238;2022-08-30T03:14:57;7.20;;;3.25;;
21000;SDS011;10658;50.920;12.238;2022-08-30T03:18:58;5.13;;;2.53;;
21000;SDS011;10658;50.920;12.238;2022-08-30T03:22:59;6.38;;;3.28;;
21000;SDS011;10658;50.920;12.238;2022-08-30T03:27:01;5.60;;;2.83;;
21000;SDS011;10658;50.920;12.238;2022-08-30T03:31:02;4.78;;;3.10;;
21000;SDS011;10658;50.920;12.238;2022-08-30T03:35:05;5.78;;;3.08;;
21000;SDS011;10658;50.920;12.238;2022-08-30T03:39:08;4.30;;;3.10;;
21000;SDS011;10658;50.920;12.238;2022-08-30T03:43:09;6.07;;;2.90;;
21000;SDS011;10658;50.920;12.238;2022-08-30T03:47:11;4.40;;;2.75;;
21000;SDS011;10658;50.920;12.238;2022-08-30T03:51:12;3.92;;;2.47;;
21000;SDS011;10658;50.920;12.238;2022-08-30T03:55:13;5.60;;;3.20;;
21000;SDS011;10658;50.920;12.238;2022-08-30T03:59:14;3.85;;;3.05;;
21000;SDS011;10658;50.920;12.238;2022-08-30T04:03:15;5.03;;;2.95;;
21000;SDS011;10658;50.920;12.238;2022-08-30T04:07:17;5.85;;;2.75;;
21000;SDS011;10658;50.920;12.238;2022-08-30T04:11:18;4.38;;;2.50;;
21000;SDS011;10658;50.920;12.238;2022-08-30T04:15:20;7.50;;;3.20;;
21000;SDS011;10658;50.920;12.238;2022-08-30T04:19:22;5.35;;;2.55;;
21000;SDS011;10658;50.920;12.238;2022-08-30T04:23:24;6.07;;;2.97;;
21000;SDS011;10658;50.920;12.238;2022-08-30T04:27:28;4.72;;;2.95;;
21000;SDS011;10658;50.920;12.238;2022-08-30T04:31:33;4.50;;;2.97;;
21000;SDS011;10658;50.920;12.238;2022-08-30T04:35:35;4.93;;;2.28;;
21000;SDS011;10658;50.920;12.238;2022-08-30T04:39:37;4.88;;;2.85;;
21000;SDS011;10658;50.920;12.238;2022-08-30T04:43:41;3.90;;;2.42;;
21000;SDS011;10658;50.920;12.238;2022-08-30T04:47:43;5.10;;;2.95;;
21000;SDS011;10658;50.920;12.238;2022-08-30T04:51:44;6.03;;;2.70;;
21000;SDS011;10658;50.920;12.238;2022-08-30T04:55:46;4.65;;;2.85;;
21000;SDS011;10658;50.920;12.238;2022-08-30T04:59:57;4.57;;;2.92;;
21000;SDS011;10658;50.920;12.238;2022-08-30T05:04:06;3.50;;;2.60;;
21000;SDS011;10658;50.920;12.238;2022-08-30T05:08:09;5.40;;;2.78;;
21000;SDS011;10658;50.920;12.238;2022-08-30T05:12:12;3.95;;;2.40;;
21000;SDS011;10658;50.920;12.238;2022-08-30T05:16:14;3.45;;;2.60;;
21000;SDS011;10658;50.920;12.238;2022-08-30T05:20:17;4.53;;;2.55;;
21000;SDS011;10658;50.920;12.238;2022-08-30T05:24:18;4.90;;;2.83;;
21000;SDS011;10658;50.920;12.238;2022-08-30T05:28:19;4.72;;;3.00;;
21000;SDS011;10658;50.920;12.238;2022-08-30T05:32:21;4.43;;;3.05;;
21000;SDS011;10658;50.920;12.238;2022-08-30T05:36:25;6.07;;;3.60;;
21000;SDS011;10658;50.920;12.238;2022-08-30T05:40:28;7.75;;;4.10;;
21000;SDS011;10658;50.920;12.238;2022-08-30T05:44:29;7.00;;;3.47;;
21000;SDS011;10658;50.920;12.238;2022-08-30T05:48:32;7.10;;;4.05;;
21000;SDS011;10658;50.920;12.238;2022-08-30T05:52:38;5.65;;;3.70;;
21000;SDS011;10658;50.920;12.238;2022-08-30T05:56:41;5.25;;;3.38;;
21000;SDS011;10658;50.920;12.238;2022-08-30T06:00:45;6.07;;;3.47;;
21000;SDS011;10658;50.920;12.238;2022-08-30T06:04:46;6.22;;;3.75;;
21000;SDS011;10658;50.920;12.238;2022-08-30T06:08:49;7.20;;;3.70;;
21000;SDS011;10658;50.920;12.238;2022-08-30T06:12:51;7.45;;;4.35;;
21000;SDS011;10658;50.920;12.238;2022-08-30T06:16:52;6.75;;;4.15;;
21000;SDS011;10658;50.920;12.238;2022-08-30T06:24:59;6.63;;;4.00;;
21000;SDS011;10658;50.920;12.238;2022-08-30T06:29:21;11.13;;;4.43;;
21000;SDS011;10658;50.920;12.238;2022-08-30T06:33:25;7.47;;;4.55;;
21000;SDS011;10658;50.920;12.238;2022-08-30T06:37:27;9.32;;;4.20;;
21000;SDS011;10658;50.920;12.238;2022-08-30T06:41:30;6.03;;;4.00;;
21000;SDS011;10658;50.920;12.238;2022-08-30T06:45:33;8.38;;;4.57;;
21000;SDS011;10658;50.920;12.238;2022-08-30T06:49:35;9.05;;;4.90;;
21000;SDS011;10658;50.920;12.238;2022-08-30T06:53:36;6.30;;;3.72;;
21000;SDS011;10658;50.920;12.238;2022-08-30T06:57:37;7.75;;;4.38;;
21000;SDS011;10658;50.920;12.238;2022-08-30T07:01:39;6.18;;;3.90;;
21000;SDS011;10658;50.920;12.238;2022-08-30T07:05:41;6.05;;;4.32;;
21000;SDS011;10658;50.920;12.238;2022-08-30T07:09:42;6.60;;;4.32;;
21000;SDS011;10658;50.920;12.238;2022-08-30T07:13:44;10.25;;;4.88;;
21000;SDS011;10658;50.920;12.238;2022-08-30T07:17:45;9.32;;;4.00;;
21000;SDS011;10658;50.920;12.238;2022-08-30T07:22:06;8.68;;;4.30;;
21000;SDS011;10658;50.920;12.238;2022-08-30T07:26:07;7.28;;;4.07;;
21000;SDS011;10658;50.920;12.238;2022-08-30T07:30:11;5.82;;;3.72;;
21000;SDS011;10658;50.920;12.238;2022-08-30T07:34:15;7.75;;;4.10;;
21000;SDS011;10658;50.920;12.238;2022-08-30T07:38:17;9.50;;;4.28;;
21000;SDS011;10658;50.920;12.238;2022-08-30T07:42:19;9.45;;;4.18;;
21000;SDS011;10658;50.920;12.238;2022-08-30T07:46:21;9.45;;;4.22;;
21000;SDS011;10658;50.920;12.238;2022-08-30T07:50:23;9.95;;;4.38;;
21000;SDS011;10658;50.920;12.238;2022-08-30T07:54:25;9.90;;;5.13;;
21000;SDS011;10658;50.920;12.238;2022-08-30T07:58:27;5.55;;;4.40;;
21000;SDS011;10658;50.920;12.238;2022-08-30T08:02:29;5.93;;;3.90;;
21000;SDS011;10658;50.920;12.238;2022-08-30T08:06:31;12.50;;;4.97;;
21000;SDS011;10658;50.920;12.238;2022-08-30T08:10:35;5.90;;;4.13;;
21000;SDS011;10658;50.920;12.238;2022-08-30T08:14:37;7.80;;;4.63;;
21000;SDS011;10658;50.920;12.238;2022-08-30T08:18:41;12.73;;;5.32;;
21000;SDS011;10658;50.920;12.238;2022-08-30T08:22:42;7.88;;;4.82;;
21000;SDS011;10658;50.920;12.238;2022-08-30T08:26:43;7.55;;;4.22;;
21000;SDS011;10658;50.920;12.238;2022-08-30T08:30:45;8.23;;;5.05;;
21000;SDS011;10658;50.920;12.238;2022-08-30T08:34:48;7.68;;;4.30;;
21000;SDS011;10658;50.920;12.238;2022-08-30T08:38:51;7.55;;;4.18;;
21000;SDS011;10658;50.920;12.238;2022-08-30T08:47:12;9.73;;;4.93;;
21000;SDS011;10658;50.920;12.238;2022-08-30T08:51:18;7.78;;;3.85;;
21000;SDS011;10658;50.920;12.238;2022-08-30T08:55:49;8.80;;;4.35;;
21000;SDS011;10658;50.920;12.238;2022-08-30T08:59:52;7.57;;;4.20;;
21000;SDS011;10658;50.920;12.238;2022-08-30T09:03:55;7.72;;;4.57;;
21000;SDS011;10658;50.920;12.238;2022-08-30T09:08:00;7.38;;;4.47;;
21000;SDS011;10658;50.920;12.238;2022-08-30T09:12:06;10.23;;;5.00;;
21000;SDS011;10658;50.920;12.238;2022-08-30T09:16:09;7.93;;;4.28;;
21000;SDS011;10658;50.920;12.238;2022-08-30T09:25:05;7.45;;;3.78;;
21000;SDS011;10658;50.920;12.238;2022-08-30T09:29:21;3.65;;;2.85;;
21000;SDS011;10658;50.920;12.238;2022-08-30T09:33:22;6.45;;;4.18;;
21000;SDS011;10658;50.920;12.238;2022-08-30T09:37:28;8.30;;;3.60;;
21000;SDS011;10658;50.920;12.238;2022-08-30T09:41:35;6.88;;;4.72;;
21000;SDS011;10658;50.920;12.238;2022-08-30T09:45:44;8.65;;;3.70;;
21000;SDS011;10658;50.920;12.238;2022-08-30T09:49:47;5.97;;;3.35;;
21000;SDS011;10658;50.920;12.238;2022-08-30T10:07:00;6.75;;;2.75;;
21000;SDS011;10658;50.920;12.238;2022-08-30T10:11:17;4.32;;;2.67;;
21000;SDS011;10658;50.920;12.238;2022-08-30T10:19:42;3.13;;;2.70;;
21000;SDS011;10658;50.920;12.238;2022-08-30T10:23:57;2.97;;;2.67;;
21000;SDS011;10658;50.920;12.238;2022-08-30T10:32:24;3.75;;;2.47;;
21000;SDS011;10658;50.920;12.238;2022-08-30T10:36:32;3.28;;;2.40;;
21000;SDS011;10658;50.920;12.238;2022-08-30T10:40:41;6.03;;;2.97;;
21000;SDS011;10658;50.920;12.238;2022-08-30T10:45:08;2.47;;;2.22;;
21000;SDS011;10658;50.920;12.238;2022-08-30T10:49:20;3.35;;;2.65;;
21000;SDS011;10658;50.920;12.238;2022-08-30T10:57:58;3.95;;;2.33;;
21000;SDS011;10658;50.920;12.238;2022-08-30T11:02:13;5.13;;;2.13;;
21000;SDS011;10658;50.920;12.238;2022-08-30T11:06:26;3.38;;;2.10;;
21000;SDS011;10658;50.920;12.238;2022-08-30T11:14:43;5.72;;;2.70;;
21000;SDS011;10658;50.920;12.238;2022-08-30T11:31:50;4.05;;;2.72;;
21000;SDS011;10658;50.920;12.238;2022-08-30T11:40:43;6.43;;;2.60;;
21000;SDS011;10658;50.920;12.238;2022-08-30T11:44:46;5.18;;;2.38;;
21000;SDS011;10658;50.920;12.238;2022-08-30T11:48:47;2.58;;;2.38;;
21000;SDS011;10658;50.920;12.238;2022-08-30T11:57:30;2.88;;;2.15;;
21000;SDS011;10658;50.920;12.238;2022-08-30T12:01:48;4.43;;;2.85;;
21000;SDS011;10658;50.920;12.238;2022-08-30T12:13:53;4.50;;;2.50;;
21000;SDS011;10658;50.920;12.238;2022-08-30T12:17:56;3.58;;;2.80;;
21000;SDS011;10658;50.920;12.238;2022-08-30T12:26:59;5.93;;;2.70;;
21000;SDS011;10658;50.920;12.238;2022-08-30T12:31:24;4.57;;;2.63;;
21000;SDS011;10658;50.920;12.238;2022-08-30T12:35:26;4.22;;;2.90;;
21000;SDS011;10658;50.920;12.238;2022-08-30T12:39:33;3.30;;;2.80;;
21000;SDS011;10658;50.920;12.238;2022-08-30T12:43:46;5.82;;;2.90;;
21000;SDS011;10658;50.920;12.238;2022-08-30T12:51:55;4.63;;;2.45;;
21000;SDS011;10658;50.920;12.238;2022-08-30T12:56:17;2.75;;;2.42;;
21000;SDS011;10658;50.920;12.238;2022-08-30T13:00:25;4.80;;;2.90;;
21000;SDS011;10658;50.920;12.238;2022-08-30T13:04:27;3.45;;;2.13;;
21000;SDS011;10658;50.920;12.238;2022-08-30T13:08:33;3.80;;;2.35;;
21000;SDS011;10658;50.920;12.238;2022-08-30T13:12:58;3.05;;;2.58;;
21000;SDS011;10658;50.920;12.238;2022-08-30T13:17:21;6.10;;;2.45;;
21000;SDS011;10658;50.920;12.238;2022-08-30T13:21:27;3.95;;;2.28;;
21000;SDS011;10658;50.920;12.238;2022-08-30T13:25:31;2.60;;;2.35;;
21000;SDS011;10658;50.920;12.238;2022-08-30T13:29:34;2.75;;;2.42;;
21000;SDS011;10658;50.920;12.238;2022-08-30T13:33:37;2.95;;;2.00;;
21000;SDS011;10658;50.920;12.238;2022-08-30T13:37:41;3.38;;;2.10;;
21000;SDS011;10658;50.920;12.238;2022-08-30T13:41:43;3.72;;;2.30;;
21000;SDS011;10658;50.920;12.238;2022-08-30T13:45:44;3.03;;;2.28;;
21000;SDS011;10658;50.920;12.238;2022-08-30T13:49:45;3.58;;;2.20;;
21000;SDS011;10658;50.920;12.238;2022-08-30T13:53:48;9.88;;;2.88;;
21000;SDS011;10658;50.920;12.238;2022-08-30T13:57:50;7.07;;;3.00;;
21000;SDS011;10658;50.920;12.238;2022-08-30T14:01:52;5.32;;;3.03;;
21000;SDS011;10658;50.920;12.238;2022-08-30T14:05:56;2.92;;;2.20;;
21000;SDS011;10658;50.920;12.238;2022-08-30T14:09:58;5.22;;;2.90;;
21000;SDS011;10658;50.920;12.238;2022-08-30T14:14:04;5.07;;;2.50;;
21000;SDS011;10658;50.920;12.238;2022-08-30T14:18:06;5.03;;;3.13;;
21000;SDS011;10658;50.920;12.238;2022-08-30T14:22:11;2.88;;;2.58;;
21000;SDS011;10658;50.920;12.238;2022-08-30T14:26:16;2.92;;;2.60;;
21000;SDS011;10658;50.920;12.238;2022-08-30T14:30:21;3.88;;;3.08;;
21000;SDS011;10658;50.920;12.238;2022-08-30T14:34:23;4.72;;;2.97;;
21000;SDS011;10658;50.920;12.238;2022-08-30T14:38:25;7.40;;;2.78;;
21000;SDS011;10658;50.920;12.238;2022-08-30T14:42:28;4.45;;;2.58;;
21000;SDS011;10658;50.920;12.238;2022-08-30T14:46:30;3.67;;;2.65;;
21000;SDS011;10658;50.920;12.238;2022-08-30T14:50:31;3.03;;;2.72;;
21000;SDS011;10658;50.920;12.238;2022-08-30T14:54:33;3.97;;;2.70;;
21000;SDS011;10658;50.920;12.238;2022-08-30T14:58:35;3.65;;;2.60;;
21000;SDS011;10658;50.920;12.238;2022-08-30T15:02:37;4.85;;;2.67;;
21000;SDS011;10658;50.920;12.238;2022-08-30T15:06:41;4.45;;;2.97;;
21000;SDS011;10658;50.920;12.238;2022-08-30T15:10:46;5.65;;;2.75;;
21000;SDS011;10658;50.920;12.238;2022-08-30T15:14:48;5.18;;;3.03;;
21000;SDS011;10658;50.920;12.238;2022-08-30T15:18:50;5.32;;;2.70;;
21000;SDS011;10658;50.920;12.238;2022-08-30T15:22:52;6.18;;;3.47;;
21000;SDS011;10658;50.920;12.238;2022-08-30T15:26:54;4.40;;;2.83;;
21000;SDS011;10658;50.920;12.238;2022-08-30T15:30:56;4.47;;;3.00;;
21000;SDS011;10658;50.920;12.238;2022-08-30T15:34:57;3.50;;;3.17;;
21000;SDS011;10658;50.920;12.238;2022-08-30T15:38:59;6.10;;;3.88;;
21000;SDS011;10658;50.920;12.238;2022-08-30T15:43:02;7.53;;;3.63;;
21000;SDS011;10658;50.920;12.238;2022-08-30T15:47:04;5.28;;;3.50;;
21000;SDS011;10658;50.920;12.238;2022-08-30T15:51:06;7.55;;;4.13;;
21000;SDS011;10658;50.920;12.238;2022-08-30T15:55:08;6.88;;;3.88;;
21000;SDS011;10658;50.920;12.238;2022-08-30T15:59:09;4.05;;;3.42;;
21000;SDS011;10658;50.920;12.238;2022-08-30T16:03:14;6.90;;;3.65;;
21000;SDS011;10658;50.920;12.238;2022-08-30T16:07:17;8.35;;;3.80;;
21000;SDS011;10658;50.920;12.238;2022-08-30T16:11:19;8.15;;;3.50;;
21000;SDS011;10658;50.920;12.238;2022-08-30T16:15:27;4.65;;;3.80;;
21000;SDS011;10658;50.920;12.238;2022-08-30T16:19:29;4.45;;;3.75;;
21000;SDS011;10658;50.920;12.238;2022-08-30T16:23:32;5.65;;;3.80;;
21000;SDS011;10658;50.920;12.238;2022-08-30T16:31:42;5.82;;;3.75;;
21000;SDS011;10658;50.920;12.238;2022-08-30T16:35:43;7.22;;;4.32;;
21000;SDS011;10658;50.920;12.238;2022-08-30T16:39:45;5.05;;;4.00;;
21000;SDS011;10658;50.920;12.238;2022-08-30T16:43:46;5.60;;;4.22;;
21000;SDS011;10658;50.920;12.238;2022-08-30T16:47:49;7.43;;;4.20;;
21000;SDS011;10658;50.920;12.238;2022-08-30T16:51:50;4.70;;;3.67;;
21000;SDS011;10658;50.920;12.238;2022-08-30T16:55:52;7.18;;;3.92;;
21000;SDS011;10658;50.920;12.238;2022-08-30T16:59:55;7.55;;;4.20;;
21000;SDS011;10658;50.920;12.238;2022-08-30T17:03:58;5.75;;;3.95;;
21000;SDS011;10658;50.920;12.238;2022-08-30T17:08:00;5.22;;;4.35;;
21000;SDS011;10658;50.920;12.238;2022-08-30T17:12:03;5.32;;;3.60;;
21000;SDS011;10658;50.920;12.238;2022-08-30T17:16:05;4.70;;;3.63;;
21000;SDS011;10658;50.920;12.238;2022-08-30T17:20:07;4.95;;;3.63;;
21000;SDS011;10658;50.920;12.238;2022-08-30T17:24:09;5.05;;;4.00;;
21000;SDS011;10658;50.920;12.238;2022-08-30T17:28:10;4.80;;;3.88;;
21000;SDS011;10658;50.920;12.238;2022-08-30T17:32:13;6.07;;;4.22;;
21000;SDS011;10658;50.920;12.238;2022-08-30T17:36:14;6.93;;;4.22;;
21000;SDS011;10658;50.920;12.238;2022-08-30T17:40:15;8.18;;;4.00;;
21000;SDS011;10658;50.920;12.238;2022-08-30T17:44:18;6.03;;;4.22;;
21000;SDS011;10658;50.920;12.238;2022-08-30T17:48:22;6.10;;;4.32;;
21000;SDS011;10658;50.920;12.238;2022-08-30T17:52:25;6.22;;;3.55;;
21000;SDS011;10658;50.920;12.238;2022-08-30T17:56:28;7.68;;;3.97;;
21000;SDS011;10658;50.920;12.238;2022-08-30T18:00:30;9.57;;;4.00;;
21000;SDS011;10658;50.920;12.238;2022-08-30T18:04:34;7.38;;;3.60;;
21000;SDS011;10658;50.920;12.238;2022-08-30T18:08:36;4.95;;;3.83;;
21000;SDS011;10658;50.920;12.238;2022-08-30T18:12:37;6.22;;;4.00;;
21000;SDS011;10658;50.920;12.238;2022-08-30T18:16:40;4.13;;;3.63;;
21000;SDS011;10658;50.920;12.238;2022-08-30T18:20:42;5.18;;;3.95;;
21000;SDS011;10658;50.920;12.238;2022-08-30T18:24:45;6.53;;;4.40;;
21000;SDS011;10658;50.920;12.238;2022-08-30T18:28:46;5.00;;;3.70;;
21000;SDS011;10658;50.920;12.238;2022-08-30T18:32:47;8.10;;;3.22;;
21000;SDS011;10658;50.920;12.238;2022-08-30T18:36:48;4.03;;;3.63;;
21000;SDS011;10658;50.920;12.238;2022-08-30T18:40:57;6.22;;;4.30;;
21000;SDS011;10658;50.920;12.238;2022-08-30T18:44:59;3.75;;;3.33;;
21000;SDS011;10658;50.920;12.238;2022-08-30T18:49:00;6.18;;;3.70;;
21000;SDS011;10658;50.920;12.238;2022-08-30T18:53:03;5.50;;;3.25;;
21000;SDS011;10658;50.920;12.238;2022-08-30T18:57:04;5.80;;;4.63;;
21000;SDS011;10658;50.920;12.238;2022-08-30T19:01:06;4.43;;;3.97;;
21000;SDS011;10658;50.920;12.238;2022-08-30T19:05:07;6.55;;;3.58;;
21000;SDS011;10658;50.920;12.238;2022-08-30T19:09:10;4.30;;;3.90;;
21000;SDS011;10658;50.920;12.238;2022-08-30T19:13:11;6.30;;;4.25;;
21000;SDS011;10658;50.920;12.238;2022-08-30T19:17:14;6.47;;;3.78;;
21000;SDS011;10658;50.920;12.238;2022-08-30T19:21:15;6.18;;;3.65;;
21000;SDS011;10658;50.920;12.238;2022-08-30T19:25:17;4.68;;;3.53;;
21000;SDS011;10658;50.920;12.238;2022-08-30T19:29:19;5.05;;;3.50;;
21000;SDS011;10658;50.920;12.238;2022-08-30T19:33:20;4.15;;;3.20;;
21000;SDS011;10658;50.920;12.238;2022-08-30T19:37:22;6.10;;;3.60;;
21000;SDS011;10658;50.920;12.238;2022-08-30T19:41:27;4.53;;;3.47;;
21000;SDS011;10658;50.920;12.238;2022-08-30T19:46:02;5.22;;;4.00;;
21000;SDS011;10658;50.920;12.238;2022-08-30T19:50:15;4.68;;;3.95;;
21000;SDS011;10658;50.920;12.238;2022-08-30T19:54:23;5.10;;;3.70;;
21000;SDS011;10658;50.920;12.238;2022-08-30T19:58:26;5.63;;;3.58;;
21000;SDS011;10658;50.920;12.238;2022-08-30T20:02:37;6.00;;;3.97;;
21000;SDS011;10658;50.920;12.238;2022-08-30T20:11:43;6.15;;;4.13;;
21000;SDS011;10658;50.920;12.238;2022-08-30T20:15:55;4.47;;;3.65;;
21000;SDS011;10658;50.920;12.238;2022-08-30T20:19:58;6.95;;;4.07;;
21000;SDS011;10658;50.920;12.238;2022-08-30T20:24:00;3.58;;;3.25;;
21000;SDS011;10658;50.920;12.238;2022-08-30T20:28:03;6.20;;;3.38;;
21000;SDS011;10658;50.920;12.238;2022-08-30T20:32:06;5.47;;;3.50;;
21000;SDS011;10658;50.920;12.238;2022-08-30T20:36:07;4.10;;;3.70;;
21000;SDS011;10658;50.920;12.238;2022-08-30T20:40:12;8.75;;;3.72;;
21000;SDS011;10658;50.920;12.238;2022-08-30T20:44:15;4.78;;;3.53;;
21000;SDS011;10658;50.920;12.238;2022-08-30T20:48:17;4.38;;;3.40;;
21000;SDS011;10658;50.920;12.238;2022-08-30T20:52:18;3.95;;;3.42;;
21000;SDS011;10658;50.920;12.238;2022-08-30T20:56:20;5.50;;;3.60;;
21000;SDS011;10658;50.920;12.238;2022-08-30T21:00:22;3.63;;;3.25;;
21000;SDS011;10658;50.920;12.238;2022-08-30T21:04:24;4.28;;;3.47;;
21000;SDS011;10658;50.920;12.238;2022-08-30T21:08:27;4.32;;;3.90;;
21000;SDS011;10658;50.920;12.238;2022-08-30T21:12:31;4.28;;;3.35;;
21000;SDS011;10658;50.920;12.238;2022-08-30T21:16:33;4.68;;;3.90;;
21000;SDS011;10658;50.920;12.238;2022-08-30T21:20:35;5.18;;;3.63;;
21000;SDS011;10658;50.920;12.238;2022-08-30T21:24:36;5.20;;;3.38;;
21000;SDS011;10658;50.920;12.238;2022-08-30T21:28:38;3.67;;;3.20;;
21000;SDS011;10658;50.920;12.238;2022-08-30T21:32:40;3.70;;;3.10;;
21000;SDS011;10658;50.920;12.238;2022-08-30T21:36:42;5.10;;;3.92;;
21000;SDS011;10658;50.920;12.238;2022-08-30T21:40:46;6.07;;;4.32;;
21000;SDS011;10658;50.920;12.238;2022-08-30T21:44:47;5.15;;;3.95;;
21000;SDS011;10658;50.920;12.238;2022-08-30T21:48:51;5.10;;;4.07;;
21000;SDS011;10658;50.920;12.238;2022-08-30T21:52:53;6.45;;;4.10;;
21000;SDS011;10658;50.920;12.238;2022-08-30T21:56:56;4.47;;;3.92;;
21000;SDS011;10658;50.920;12.238;2022-08-30T22:01:09;5.85;;;3.70;;
21000;SDS011;10658;50.920;12.238;2022-08-30T22:05:14;5.13;;;4.10;;
21000;SDS011;10658;50.920;12.238;2022-08-30T22:09:17;4.82;;;3.80;;
21000;SDS011;10658;50.920;12.238;2022-08-30T22:13:22;6.57;;;4.07;;
21000;SDS011;10658;50.920;12.238;2022-08-30T22:17:23;6.25;;;4.07;;
21000;SDS011;10658;50.920;12.238;2022-08-30T22:21:26;5.07;;;4.22;;
21000;SDS011;10658;50.920;12.238;2022-08-30T22:25:32;5.70;;;4.15;;
21000;SDS011;10658;50.920;12.238;2022-08-30T22:29:33;5.00;;;4.20;;
21000;SDS011;10658;50.920;12.238;2022-08-30T22:33:35;3.22;;;2.90;;
21000;SDS011;10658;50.920;12.238;2022-08-30T22:37:36;7.97;;;4.63;;
21000;SDS011;10658;50.920;12.238;2022-08-30T22:41:38;4.07;;;3.63;;
21000;SDS011;10658;50.920;12.238;2022-08-30T22:45:40;6.72;;;4.40;;
21000;SDS011;10658;50.920;12.238;2022-08-30T22:49:42;5.68;;;4.32;;
21000;SDS011;10658;50.920;12.238;2022-08-30T22:53:44;5.28;;;4.38;;
21000;SDS011;10658;50.920;12.238;2022-08-30T22:57:45;6.35;;;4.13;;
21000;SDS011;10658;50.920;12.238;2022-08-30T23:01:47;4.95;;;3.88;;
21000;SDS011;10658;50.920;12.238;2022-08-30T23:05:48;6.25;;;4.15;;
21000;SDS011;10658;50.920;12.238;2022-08-30T23:09:49;5.82;;;3.83;;
21000;SDS011;10658;50.920;12.238;2022-08-30T23:13:51;5.20;;;3.63;;
21000;SDS011;10658;50.920;12.238;2022-08-30T23:17:53;6.30;;;4.45;;
21000;SDS011;10658;50.920;12.238;2022-08-30T23:21:54;7.35;;;4.85;;
21000;SDS011;10658;50.920;12.238;2022-08-30T23:25:57;5.07;;;4.28;;
21000;SDS011;10658;50.920;12.238;2022-08-30T23:30:18;4.90;;;3.88;;
21000;SDS011;10658;50.920;12.238;2022-08-30T23:34:38;6.18;;;3.90;;
21000;SDS011;10658;50.920;12.238;2022-08-30T23:39:01;5.63;;;4.57;;
21000;SDS011;10658;50.920;12.238;2022-08-30T23:43:21;5.70;;;4.50;;
21000;SDS011;10658;50.920;12.238;2022-08-30T23:47:41;10.13;;;4.72;;
21000;SDS011;10658;50.920;12.238;2022-08-30T23:52:04;5.82;;;4.35;;
21000;SDS011;10658;50.920;12.238;2022-08-30T23:56:24;8.05;;;4.55;;
